createdAt,value
2019-06-20T00:00:16.426Z,0.00
2019-06-20T00:01:16.381Z,0.00
2019-06-20T00:02:16.343Z,0.00
2019-06-20T00:03:16.300Z,0.00
2019-06-20T00:04:16.296Z,0.00
2019-06-20T00:05:16.231Z,0.00
2019-06-20T00:06:16.241Z,0.00
2019-06-20T00:07:16.156Z,0.00
2019-06-20T00:08:16.107Z,0.00
2019-06-20T00:09:16.073Z,0.00
2019-06-20T00:10:16.031Z,0.00
2019-06-20T00:11:15.997Z,0.00
2019-06-20T00:12:15.998Z,0.00
2019-06-20T00:13:15.925Z,0.00
2019-06-20T00:14:15.886Z,0.00
2019-06-20T00:15:15.842Z,0.00
2019-06-20T00:16:15.800Z,0.00
2019-06-20T00:17:15.794Z,0.00
2019-06-20T00:18:15.723Z,0.00
2019-06-20T00:19:15.695Z,0.00
2019-06-20T00:20:15.678Z,0.00
2019-06-20T00:21:15.617Z,0.00
2019-06-20T00:22:15.603Z,0.00
2019-06-20T00:23:15.541Z,0.00
2019-06-20T00:24:15.501Z,0.00
2019-06-20T00:25:15.461Z,0.00
2019-06-20T00:26:15.443Z,0.00
2019-06-20T00:27:15.416Z,0.00
2019-06-20T00:28:15.402Z,0.00
2019-06-20T00:29:15.302Z,0.00
2019-06-20T00:30:15.269Z,0.00
2019-06-20T00:31:15.241Z,0.00
2019-06-20T00:32:15.194Z,0.00
2019-06-20T00:33:15.192Z,0.00
2019-06-20T00:34:15.116Z,0.00
2019-06-20T00:35:15.077Z,0.00
2019-06-20T00:36:15.036Z,0.00
2019-06-20T00:37:15.000Z,0.00
2019-06-20T00:38:14.965Z,0.00
2019-06-20T00:39:14.956Z,0.00
2019-06-20T00:40:14.882Z,0.00
2019-06-20T00:41:14.842Z,0.00
2019-06-20T00:42:14.819Z,0.00
2019-06-20T00:43:17.853Z,0.00
2019-06-20T00:44:14.735Z,0.00
2019-06-20T00:45:14.695Z,0.00
2019-06-20T00:46:14.658Z,0.00
2019-06-20T00:47:14.614Z,0.00
2019-06-20T00:48:14.579Z,0.00
2019-06-20T00:49:14.575Z,0.00
2019-06-20T00:50:14.499Z,0.00
2019-06-20T00:51:14.466Z,0.00
2019-06-20T00:52:14.429Z,0.00
2019-06-20T00:53:14.408Z,0.00
2019-06-20T00:54:14.344Z,0.00
2019-06-20T00:55:14.344Z,0.00
2019-06-20T00:56:14.276Z,0.00
2019-06-20T00:57:14.236Z,0.00
2019-06-20T00:58:14.210Z,0.00
2019-06-20T00:59:14.153Z,0.00
2019-06-20T01:00:14.154Z,0.00
2019-06-20T01:01:14.073Z,0.00
2019-06-20T01:02:14.037Z,0.00
2019-06-20T01:03:14.007Z,0.00
2019-06-20T01:04:13.965Z,0.00
2019-06-20T01:05:13.926Z,0.00
2019-06-20T01:06:13.927Z,0.00
2019-06-20T01:07:13.848Z,0.00
2019-06-20T01:08:13.812Z,0.00
2019-06-20T01:09:13.785Z,0.00
2019-06-20T01:10:13.744Z,0.00
2019-06-20T01:11:13.697Z,0.00
2019-06-20T01:12:13.690Z,0.00
2019-06-20T01:13:13.619Z,0.00
2019-06-20T01:14:13.582Z,0.00
2019-06-20T01:15:13.548Z,0.00
2019-06-20T01:16:13.513Z,0.00
2019-06-20T01:17:13.472Z,0.00
2019-06-20T01:18:13.470Z,0.00
2019-06-20T01:19:13.385Z,0.00
2019-06-20T01:20:13.350Z,0.00
2019-06-20T01:21:13.309Z,0.00
2019-06-20T01:22:13.271Z,0.00
2019-06-20T01:23:13.276Z,0.00
2019-06-20T01:24:13.203Z,0.00
2019-06-20T01:25:13.159Z,0.00
2019-06-20T01:26:13.130Z,0.00
2019-06-20T01:27:13.089Z,0.00
2019-06-20T01:28:13.050Z,0.00
2019-06-20T01:29:13.042Z,0.00
2019-06-20T01:30:12.974Z,0.00
2019-06-20T01:31:12.965Z,0.00
2019-06-20T01:32:12.895Z,0.00
2019-06-20T01:33:12.853Z,0.00
2019-06-20T01:34:12.817Z,0.00
2019-06-20T01:35:12.781Z,0.00
2019-06-20T01:36:12.778Z,0.00
2019-06-20T01:37:12.713Z,0.00
2019-06-20T01:38:12.713Z,0.00
2019-06-20T01:39:12.626Z,0.00
2019-06-20T01:40:12.591Z,0.00
2019-06-20T01:41:12.563Z,0.00
2019-06-20T01:42:12.517Z,0.00
2019-06-20T01:43:12.473Z,0.00
2019-06-20T01:44:12.467Z,0.00
2019-06-20T01:45:12.395Z,0.00
2019-06-20T01:46:12.391Z,0.00
2019-06-20T01:47:12.327Z,0.00
2019-06-20T01:48:12.291Z,0.00
2019-06-20T01:49:12.249Z,0.00
2019-06-20T01:50:12.213Z,0.00
2019-06-20T01:51:12.198Z,0.00
2019-06-20T01:52:12.133Z,0.00
2019-06-20T01:53:12.099Z,0.00
2019-06-20T01:54:12.053Z,0.00
2019-06-20T01:55:12.055Z,0.00
2019-06-20T01:56:11.994Z,0.00
2019-06-20T01:57:11.954Z,0.00
2019-06-20T01:58:11.903Z,0.00
2019-06-20T01:59:11.908Z,0.00
2019-06-20T02:00:11.841Z,0.00
2019-06-20T02:01:11.801Z,0.00
2019-06-20T02:02:11.763Z,0.00
2019-06-20T02:03:11.714Z,0.00
2019-06-20T02:04:11.676Z,0.00
2019-06-20T02:05:11.668Z,0.00
2019-06-20T02:06:11.600Z,0.00
2019-06-20T02:07:11.567Z,0.00
2019-06-20T02:08:11.611Z,0.00
2019-06-20T02:09:11.527Z,0.00
2019-06-20T02:10:11.458Z,0.00
2019-06-20T02:11:11.525Z,0.00
2019-06-20T02:12:11.373Z,0.00
2019-06-20T02:13:11.349Z,0.00
2019-06-20T02:14:11.308Z,0.00
2019-06-20T02:15:11.290Z,0.00
2019-06-20T02:16:11.222Z,0.00
2019-06-20T02:17:11.186Z,0.00
2019-06-20T02:18:11.143Z,0.00
2019-06-20T02:19:11.119Z,0.00
2019-06-20T02:20:11.114Z,0.00
2019-06-20T02:21:11.037Z,0.00
2019-06-20T02:22:11.002Z,0.00
2019-06-20T02:23:10.955Z,0.00
2019-06-20T02:24:10.922Z,0.00
2019-06-20T02:25:10.914Z,0.00
2019-06-20T02:26:10.869Z,0.00
2019-06-20T02:27:10.811Z,0.00
2019-06-20T02:28:10.801Z,0.00
2019-06-20T02:29:10.744Z,0.00
2019-06-20T02:30:10.724Z,0.00
2019-06-20T02:31:10.672Z,0.00
2019-06-20T02:32:10.621Z,0.00
2019-06-20T02:33:10.630Z,0.00
2019-06-20T02:34:10.546Z,0.00
2019-06-20T02:35:10.497Z,0.00
2019-06-20T02:36:10.461Z,0.00
2019-06-20T02:37:10.430Z,0.00
2019-06-20T02:38:10.386Z,0.00
2019-06-20T02:39:10.393Z,0.00
2019-06-20T02:40:10.319Z,0.00
2019-06-20T02:41:10.279Z,0.00
2019-06-20T02:42:10.242Z,0.00
2019-06-20T02:43:10.199Z,0.00
2019-06-20T02:44:28.360Z,0.00
2019-06-20T02:45:10.157Z,0.00
2019-06-20T02:46:10.084Z,0.00
2019-06-20T02:47:10.057Z,0.00
2019-06-20T02:48:10.008Z,0.00
2019-06-20T02:49:09.996Z,4.00
2019-06-20T02:50:09.944Z,4.00
2019-06-20T02:51:09.899Z,4.00
2019-06-20T02:52:09.865Z,8.00
2019-06-20T02:53:09.821Z,12.00
2019-06-20T02:54:09.786Z,12.00
2019-06-20T02:55:09.772Z,16.00
2019-06-20T02:56:09.705Z,12.00
2019-06-20T02:57:09.667Z,12.00
2019-06-20T02:58:09.625Z,16.00
2019-06-20T02:59:09.594Z,16.00
2019-06-20T03:00:09.627Z,20.00
2019-06-20T03:01:09.511Z,20.00
2019-06-20T03:02:09.473Z,24.00
2019-06-20T03:03:09.451Z,24.00
2019-06-20T03:04:09.434Z,20.00
2019-06-20T03:05:09.366Z,20.00
2019-06-20T03:06:09.328Z,24.00
2019-06-20T03:07:09.299Z,28.00
2019-06-20T03:08:09.243Z,28.00
2019-06-20T03:09:09.252Z,36.00
2019-06-20T03:10:09.171Z,44.00
2019-06-20T03:11:09.142Z,48.00
2019-06-20T03:12:09.106Z,52.00
2019-06-20T03:13:09.634Z,76.00
2019-06-20T03:14:09.025Z,100.00
2019-06-20T03:15:09.017Z,100.00
2019-06-20T03:16:08.941Z,88.00
2019-06-20T03:17:08.915Z,112.00
2019-06-20T03:18:08.870Z,120.00
2019-06-20T03:19:08.827Z,108.00
2019-06-20T03:20:08.795Z,112.00
2019-06-20T03:21:08.783Z,140.00
2019-06-20T03:22:08.714Z,156.00
2019-06-20T03:23:08.681Z,160.00
2019-06-20T03:24:08.643Z,156.00
2019-06-20T03:25:08.607Z,152.00
2019-06-20T03:26:08.602Z,176.00
2019-06-20T03:27:08.529Z,180.00
2019-06-20T03:28:08.486Z,196.00
2019-06-20T03:29:08.449Z,236.00
2019-06-20T03:30:08.416Z,236.00
2019-06-20T03:31:08.380Z,232.00
2019-06-20T03:32:08.379Z,268.00
2019-06-20T03:33:08.307Z,268.00
2019-06-20T03:34:08.260Z,228.00
2019-06-20T03:35:08.225Z,236.00
2019-06-20T03:36:08.188Z,264.00
2019-06-20T03:37:08.150Z,344.00
2019-06-20T03:38:08.139Z,416.00
2019-06-20T03:39:08.066Z,444.00
2019-06-20T03:40:08.032Z,428.00
2019-06-20T03:41:07.993Z,464.00
2019-06-20T03:42:07.990Z,540.00
2019-06-20T03:43:07.955Z,508.00
2019-06-20T03:44:07.886Z,508.00
2019-06-20T03:45:07.846Z,536.00
2019-06-20T03:46:07.805Z,456.00
2019-06-20T03:47:07.773Z,472.00
2019-06-20T03:48:07.758Z,552.00
2019-06-20T03:49:07.694Z,544.00
2019-06-20T03:50:07.654Z,508.00
2019-06-20T03:51:07.653Z,564.00
2019-06-20T03:52:07.577Z,648.00
2019-06-20T03:53:07.586Z,644.00
2019-06-20T03:54:07.500Z,720.00
2019-06-20T03:55:07.465Z,664.00
2019-06-20T03:56:07.424Z,608.00
2019-06-20T03:57:07.391Z,528.00
2019-06-20T03:58:07.350Z,488.00
2019-06-20T03:59:07.337Z,476.00
2019-06-20T04:00:07.270Z,512.00
2019-06-20T04:01:07.234Z,620.00
2019-06-20T04:02:07.198Z,604.00
2019-06-20T04:03:07.189Z,596.00
2019-06-20T04:04:07.125Z,560.00
2019-06-20T04:05:07.087Z,468.00
2019-06-20T04:06:07.043Z,532.00
2019-06-20T04:07:07.070Z,700.00
2019-06-20T04:08:07.003Z,604.00
2019-06-20T04:09:06.932Z,468.00
2019-06-20T04:10:06.895Z,448.00
2019-06-20T04:11:06.885Z,536.00
2019-06-20T04:12:06.846Z,796.00
2019-06-20T04:13:06.815Z,780.00
2019-06-20T04:14:06.737Z,968.00
2019-06-20T04:15:18.557Z,1076.00
2019-06-20T04:16:06.669Z,776.00
2019-06-20T04:17:06.629Z,752.00
2019-06-20T04:18:06.590Z,980.00
2019-06-20T04:19:06.584Z,1304.00
2019-06-20T04:20:06.510Z,1536.00
2019-06-20T04:21:06.473Z,1228.00
2019-06-20T04:22:06.451Z,820.00
2019-06-20T04:23:06.393Z,624.00
2019-06-20T04:24:06.356Z,736.00
2019-06-20T04:25:06.353Z,736.00
2019-06-20T04:26:06.285Z,820.00
2019-06-20T04:27:06.249Z,848.00
2019-06-20T04:28:06.208Z,860.00
2019-06-20T04:29:06.178Z,836.00
2019-06-20T04:30:06.203Z,768.00
2019-06-20T04:31:06.091Z,968.00
2019-06-20T04:32:06.282Z,948.00
2019-06-20T04:33:06.013Z,800.00
2019-06-20T04:34:05.978Z,844.00
2019-06-20T04:35:05.983Z,928.00
2019-06-20T04:36:05.908Z,780.00
2019-06-20T04:37:05.866Z,648.00
2019-06-20T04:38:05.824Z,788.00
2019-06-20T04:39:18.366Z,840.00
2019-06-20T04:40:05.820Z,1012.00
2019-06-20T04:41:05.749Z,1224.00
2019-06-20T04:42:05.679Z,1836.00
2019-06-20T04:43:05.640Z,2220.00
2019-06-20T04:44:05.599Z,2276.00
2019-06-20T04:45:05.557Z,2148.00
2019-06-20T04:46:05.552Z,2336.00
2019-06-20T04:47:05.494Z,2876.00
2019-06-20T04:48:05.451Z,3460.00
2019-06-20T04:49:05.420Z,4120.00
2019-06-20T04:50:05.376Z,3960.00
2019-06-20T04:51:05.333Z,4852.00
2019-06-20T04:52:05.326Z,5312.00
2019-06-20T04:53:05.262Z,5456.00
2019-06-20T04:54:05.224Z,5488.00
2019-06-20T04:55:05.189Z,4700.00
2019-06-20T04:56:05.889Z,5040.00
2019-06-20T04:57:05.138Z,5052.00
2019-06-20T04:58:05.074Z,4248.00
2019-06-20T04:59:05.038Z,4188.00
2019-06-20T05:00:04.996Z,4088.00
2019-06-20T05:01:04.967Z,4168.00
2019-06-20T05:02:04.955Z,4628.00
2019-06-20T05:03:04.881Z,5008.00
2019-06-20T05:04:04.844Z,5532.00
2019-06-20T05:05:04.811Z,6160.00
2019-06-20T05:06:04.765Z,6296.00
2019-06-20T05:07:04.770Z,6220.00
2019-06-20T05:08:04.697Z,6024.00
2019-06-20T05:09:04.658Z,5876.00
2019-06-20T05:10:04.619Z,6016.00
2019-06-20T05:11:04.589Z,6480.00
2019-06-20T05:12:04.551Z,6748.00
2019-06-20T05:13:04.540Z,5808.00
2019-06-20T05:14:04.469Z,5640.00
2019-06-20T05:15:04.432Z,5280.00
2019-06-20T05:16:04.424Z,4972.00
2019-06-20T05:17:07.120Z,5200.00
2019-06-20T05:18:04.316Z,5288.00
2019-06-20T05:19:04.288Z,6748.00
2019-06-20T05:20:04.249Z,7340.00
2019-06-20T05:21:04.242Z,7252.00
2019-06-20T05:22:04.174Z,7988.00
2019-06-20T05:23:04.130Z,8536.00
2019-06-20T05:24:04.095Z,8828.00
2019-06-20T05:25:04.064Z,9272.00
2019-06-20T05:26:04.056Z,9320.00
2019-06-20T05:27:03.983Z,10356.00
2019-06-20T05:28:03.945Z,9740.00
2019-06-20T05:29:05.483Z,8496.00
2019-06-20T05:30:03.873Z,7184.00
2019-06-20T05:31:03.882Z,6640.00
2019-06-20T05:32:03.804Z,6168.00
2019-06-20T05:33:03.764Z,5844.00
2019-06-20T05:34:03.730Z,5816.00
2019-06-20T05:35:03.686Z,5924.00
2019-06-20T05:36:03.649Z,6232.00
2019-06-20T05:37:03.645Z,6100.00
2019-06-20T05:38:03.605Z,6352.00
2019-06-20T05:39:03.549Z,6744.00
2019-06-20T05:40:03.512Z,7172.00
2019-06-20T05:41:03.499Z,7020.00
2019-06-20T05:42:03.434Z,7236.00
2019-06-20T05:43:03.605Z,6992.00
2019-06-20T05:44:03.371Z,6896.00
2019-06-20T05:45:03.323Z,6228.00
2019-06-20T05:46:09.626Z,6796.00
2019-06-20T05:47:12.465Z,6832.00
2019-06-20T05:48:03.245Z,6820.00
2019-06-20T05:49:03.176Z,4748.00
2019-06-20T05:50:03.131Z,5388.00
2019-06-20T05:51:03.098Z,6508.00
2019-06-20T05:52:03.059Z,6528.00
2019-06-20T05:53:03.026Z,6540.00
2019-06-20T05:54:03.031Z,6652.00
2019-06-20T05:55:02.957Z,6820.00
2019-06-20T05:56:02.945Z,7592.00
2019-06-20T05:57:04.565Z,7240.00
2019-06-20T05:58:03.024Z,6840.00
2019-06-20T05:59:02.810Z,7760.00
2019-06-20T06:00:02.766Z,7864.00
2019-06-20T06:01:02.764Z,7504.00
2019-06-20T06:02:02.743Z,7108.00
2019-06-20T06:03:06.672Z,7032.00
2019-06-20T06:04:02.620Z,6340.00
2019-06-20T06:05:02.581Z,5352.00
2019-06-20T06:06:02.550Z,4880.00
2019-06-20T06:07:02.645Z,4112.00
2019-06-20T06:08:02.468Z,4488.00
2019-06-20T06:09:02.434Z,5024.00
2019-06-20T06:10:04.045Z,4480.00
2019-06-20T06:11:02.392Z,4756.00
2019-06-20T06:12:02.326Z,4828.00
2019-06-20T06:13:03.088Z,5532.00
2019-06-20T06:14:02.249Z,5104.00
2019-06-20T06:15:02.219Z,5196.00
2019-06-20T06:16:02.209Z,6128.00
2019-06-20T06:17:02.236Z,6756.00
2019-06-20T06:18:02.294Z,8040.00
2019-06-20T06:19:02.061Z,9164.00
2019-06-20T06:20:02.080Z,9724.00
2019-06-20T06:21:01.986Z,10212.00
2019-06-20T06:22:01.955Z,9560.00
2019-06-20T06:23:01.956Z,8064.00
2019-06-20T06:24:01.884Z,7276.00
2019-06-20T06:25:01.849Z,8468.00
2019-06-20T06:26:01.809Z,8244.00
2019-06-20T06:27:01.764Z,11612.00
2019-06-20T06:28:01.764Z,13916.00
2019-06-20T06:29:01.857Z,13828.00
2019-06-20T06:30:01.938Z,14412.00
2019-06-20T06:31:01.617Z,12800.00
2019-06-20T06:32:01.612Z,9748.00
2019-06-20T06:33:01.732Z,8448.00
2019-06-20T06:34:01.512Z,6952.00
2019-06-20T06:35:01.482Z,6424.00
2019-06-20T06:36:01.547Z,6784.00
2019-06-20T06:37:01.466Z,8012.00
2019-06-20T06:38:01.405Z,8028.00
2019-06-20T06:39:01.324Z,7732.00
2019-06-20T06:40:01.337Z,8260.00
2019-06-20T06:41:01.258Z,7304.00
2019-06-20T06:42:01.301Z,6428.00
2019-06-20T06:43:01.222Z,6096.00
2019-06-20T06:44:01.181Z,6040.00
2019-06-20T06:45:01.106Z,6156.00
2019-06-20T06:46:01.340Z,6384.00
2019-06-20T06:47:01.050Z,6976.00
2019-06-20T06:48:01.004Z,6808.00
2019-06-20T06:49:00.998Z,8052.00
2019-06-20T06:50:00.939Z,8440.00
2019-06-20T06:51:00.906Z,9500.00
2019-06-20T06:52:00.854Z,10828.00
2019-06-20T06:53:00.814Z,12108.00
2019-06-20T06:54:00.814Z,13968.00
2019-06-20T06:55:00.752Z,15436.00
2019-06-20T06:56:00.711Z,18272.00
2019-06-20T06:57:00.673Z,20320.00
2019-06-20T06:58:00.636Z,27712.00
2019-06-20T06:59:00.599Z,28736.00
2019-06-20T07:00:00.590Z,27680.00
2019-06-20T07:01:00.527Z,28544.00
2019-06-20T07:02:00.491Z,32576.00
2019-06-20T07:03:00.450Z,29760.00
2019-06-20T07:04:00.411Z,25440.00
2019-06-20T07:05:00.383Z,21504.00
2019-06-20T07:06:00.374Z,19104.00
2019-06-20T07:07:00.344Z,21504.00
2019-06-20T07:08:00.277Z,15608.00
2019-06-20T07:09:00.247Z,17984.00
2019-06-20T07:10:00.205Z,16560.00
2019-06-20T07:11:00.193Z,19328.00
2019-06-20T07:12:00.174Z,19136.00
2019-06-20T07:13:00.103Z,15576.00
2019-06-20T07:14:00.064Z,13596.00
2019-06-20T07:15:00.061Z,16920.00
2019-06-20T07:15:59.992Z,25440.00
2019-06-20T07:17:00.844Z,17312.00
2019-06-20T07:17:59.915Z,14812.00
2019-06-20T07:18:59.889Z,14000.00
2019-06-20T07:19:59.856Z,12540.00
2019-06-20T07:20:59.828Z,13632.00
2019-06-20T07:21:59.785Z,14908.00
2019-06-20T07:22:59.779Z,14940.00
2019-06-20T07:23:59.712Z,17472.00
2019-06-20T07:24:59.678Z,20800.00
2019-06-20T07:25:59.641Z,17920.00
2019-06-20T07:26:59.640Z,15076.00
2019-06-20T07:27:59.569Z,19744.00
2019-06-20T07:28:59.538Z,36576.00
2019-06-20T07:29:59.529Z,41344.00
2019-06-20T07:30:59.471Z,20864.00
2019-06-20T07:31:59.435Z,31264.00
2019-06-20T07:32:59.402Z,32416.00
2019-06-20T07:33:59.394Z,35904.00
2019-06-20T07:34:59.331Z,41344.00
2019-06-20T07:35:59.318Z,40352.00
2019-06-20T07:36:59.253Z,48480.00
2019-06-20T07:37:59.226Z,55040.00
2019-06-20T07:38:59.221Z,60448.00
2019-06-20T07:39:59.167Z,45152.00
2019-06-20T07:40:59.121Z,50752.00
2019-06-20T07:41:59.083Z,41472.00
2019-06-20T07:42:59.085Z,39744.00
2019-06-20T07:43:59.029Z,39040.00
2019-06-20T07:44:59.022Z,40320.00
2019-06-20T07:46:02.909Z,41056.00
2019-06-20T07:46:58.958Z,42464.00
2019-06-20T07:47:58.885Z,44256.00
2019-06-20T07:48:58.854Z,47296.00
2019-06-20T07:49:58.827Z,46272.00
2019-06-20T07:50:58.788Z,43840.00
2019-06-20T07:51:58.774Z,36640.00
2019-06-20T07:53:02.350Z,42432.00
2019-06-20T07:53:58.693Z,45888.00
2019-06-20T07:54:58.700Z,50240.00
2019-06-20T07:55:58.640Z,42240.00
2019-06-20T07:56:58.597Z,40544.00
2019-06-20T07:57:58.576Z,43840.00
2019-06-20T07:58:58.564Z,44928.00
2019-06-20T07:59:58.497Z,51072.00
2019-06-20T08:00:58.466Z,43552.00
2019-06-20T08:01:58.431Z,27168.00
2019-06-20T08:02:58.410Z,34624.00
2019-06-20T08:03:58.410Z,28832.00
2019-06-20T08:04:58.340Z,49600.00
2019-06-20T08:05:58.306Z,59392.00
2019-06-20T08:06:58.280Z,57248.00
2019-06-20T08:07:58.237Z,48896.00
2019-06-20T08:08:58.203Z,45216.00
2019-06-20T08:09:58.202Z,45696.00
2019-06-20T08:10:58.136Z,47840.00
2019-06-20T08:11:58.136Z,43424.00
2019-06-20T08:12:58.083Z,22144.00
2019-06-20T08:13:58.077Z,21024.00
2019-06-20T08:15:11.173Z,15916.00
2019-06-20T08:15:57.995Z,15244.00
2019-06-20T08:16:57.961Z,14180.00
2019-06-20T08:17:57.925Z,13488.00
2019-06-20T08:18:57.918Z,13888.00
2019-06-20T08:19:57.891Z,14724.00
2019-06-20T08:20:57.820Z,15696.00
2019-06-20T08:21:57.812Z,46784.00
2019-06-20T08:22:57.758Z,20512.00
2019-06-20T08:23:57.734Z,21216.00
2019-06-20T08:24:58.946Z,35616.00
2019-06-20T08:25:59.262Z,55808.00
2019-06-20T08:26:58.713Z,45440.00
2019-06-20T08:27:59.435Z,58560.00
2019-06-20T08:29:10.568Z,61632.00
2019-06-20T08:29:58.987Z,61568.00
2019-06-20T08:30:58.876Z,62688.00
2019-06-20T08:31:57.967Z,61696.00
2019-06-20T08:32:59.130Z,66112.00
2019-06-20T08:33:58.882Z,35296.00
2019-06-20T08:34:58.991Z,42656.00
2019-06-20T08:35:58.733Z,50624.00
2019-06-20T08:36:58.936Z,66944.00
2019-06-20T08:37:57.818Z,36256.00
2019-06-20T08:38:58.594Z,40320.00
2019-06-20T08:39:58.384Z,42688.00
2019-06-20T08:40:58.359Z,31200.00
2019-06-20T08:41:58.856Z,52320.00
2019-06-20T08:42:58.473Z,47552.00
2019-06-20T08:43:58.344Z,21152.00
2019-06-20T08:44:57.868Z,20960.00
2019-06-20T08:45:57.877Z,19488.00
2019-06-20T08:47:00.231Z,20704.00
2019-06-20T08:47:58.258Z,65920.00
2019-06-20T08:48:58.247Z,66208.00
2019-06-20T08:49:58.151Z,64480.00
2019-06-20T08:50:58.426Z,62944.00
2019-06-20T08:51:57.352Z,46144.00
2019-06-20T08:52:58.019Z,49280.00
2019-06-20T08:53:57.545Z,22272.00
2019-06-20T08:54:58.242Z,28000.00
2019-06-20T08:55:58.114Z,18848.00
2019-06-20T08:56:57.406Z,38176.00
2019-06-20T08:57:58.192Z,20192.00
2019-06-20T08:58:57.336Z,21344.00
2019-06-20T08:59:57.307Z,43680.00
2019-06-20T09:00:58.042Z,27520.00
2019-06-20T09:01:58.713Z,22944.00
2019-06-20T09:02:57.355Z,29152.00
2019-06-20T09:03:57.026Z,38592.00
2019-06-20T09:04:56.533Z,24768.00
2019-06-20T09:05:57.133Z,35936.00
2019-06-20T09:06:57.534Z,42560.00
2019-06-20T09:07:57.204Z,47040.00
2019-06-20T09:08:57.057Z,49120.00
2019-06-20T09:09:57.553Z,31936.00
2019-06-20T09:10:57.375Z,55872.00
2019-06-20T09:11:56.540Z,62912.00
2019-06-20T09:12:57.033Z,71232.00
2019-06-20T09:13:57.152Z,75872.00
2019-06-20T09:14:56.909Z,76288.00
2019-06-20T09:15:56.765Z,75680.00
2019-06-20T09:16:56.493Z,31424.00
2019-06-20T09:17:56.811Z,68960.00
2019-06-20T09:18:56.739Z,36352.00
2019-06-20T09:19:55.961Z,77216.00
2019-06-20T09:20:56.040Z,36000.00
2019-06-20T09:21:55.876Z,28736.00
2019-06-20T09:22:56.756Z,25024.00
2019-06-20T09:23:55.808Z,23552.00
2019-06-20T09:24:56.800Z,20768.00
2019-06-20T09:25:55.991Z,38240.00
2019-06-20T09:26:55.714Z,20416.00
2019-06-20T09:27:55.994Z,23744.00
2019-06-20T09:28:55.707Z,15640.00
2019-06-20T09:29:56.251Z,13632.00
2019-06-20T09:30:56.770Z,12980.00
2019-06-20T09:31:55.718Z,11104.00
2019-06-20T09:32:55.622Z,11144.00
2019-06-20T09:33:55.787Z,13124.00
2019-06-20T09:34:56.557Z,16412.00
2019-06-20T09:35:55.604Z,27168.00
2019-06-20T09:36:55.405Z,21952.00
2019-06-20T09:37:55.367Z,17888.00
2019-06-20T09:38:55.332Z,15668.00
2019-06-20T09:39:55.306Z,15756.00
2019-06-20T09:40:55.329Z,16676.00
2019-06-20T09:41:56.513Z,16380.00
2019-06-20T09:42:56.427Z,15592.00
2019-06-20T09:43:56.376Z,15268.00
2019-06-20T09:44:56.377Z,16616.00
2019-06-20T09:45:56.081Z,19200.00
2019-06-20T09:46:56.355Z,22624.00
2019-06-20T09:47:56.044Z,19392.00
2019-06-20T09:48:55.589Z,21792.00
2019-06-20T09:49:56.011Z,26720.00
2019-06-20T09:50:54.943Z,25920.00
2019-06-20T09:51:56.537Z,26560.00
2019-06-20T09:52:56.458Z,37728.00
2019-06-20T09:53:56.274Z,20544.00
2019-06-20T09:54:56.044Z,17344.00
2019-06-20T09:55:55.677Z,17440.00
2019-06-20T09:56:55.393Z,19136.00
2019-06-20T09:57:55.892Z,21312.00
2019-06-20T09:58:55.311Z,22048.00
2019-06-20T10:00:05.892Z,21184.00
2019-06-20T10:00:55.112Z,38528.00
2019-06-20T10:01:56.402Z,55328.00
2019-06-20T10:02:56.293Z,64992.00
2019-06-20T10:03:54.788Z,63296.00
2019-06-20T10:04:54.543Z,65152.00
2019-06-20T10:05:54.761Z,63904.00
2019-06-20T10:06:54.498Z,62976.00
2019-06-20T10:07:54.623Z,61312.00
2019-06-20T10:08:54.421Z,60928.00
2019-06-20T10:09:54.308Z,58752.00
2019-06-20T10:10:54.287Z,58880.00
2019-06-20T10:11:54.252Z,57088.00
2019-06-20T10:12:55.739Z,56672.00
2019-06-20T10:13:54.317Z,60096.00
2019-06-20T10:14:54.158Z,60192.00
2019-06-20T10:15:55.581Z,60448.00
2019-06-20T10:16:55.114Z,60128.00
2019-06-20T10:17:54.520Z,42592.00
2019-06-20T10:18:54.371Z,27744.00
2019-06-20T10:19:54.138Z,63648.00
2019-06-20T10:20:54.011Z,21792.00
2019-06-20T10:21:53.950Z,62944.00
2019-06-20T10:22:53.935Z,21728.00
2019-06-20T10:23:53.989Z,21920.00
2019-06-20T10:24:53.843Z,25888.00
2019-06-20T10:25:53.815Z,22144.00
2019-06-20T10:26:53.789Z,23040.00
2019-06-20T10:27:53.988Z,23584.00
2019-06-20T10:28:53.766Z,24768.00
2019-06-20T10:29:53.684Z,20928.00
2019-06-20T10:30:53.655Z,20864.00
2019-06-20T10:31:53.632Z,20640.00
2019-06-20T10:32:53.599Z,18912.00
2019-06-20T10:33:53.572Z,23392.00
2019-06-20T10:34:53.572Z,29632.00
2019-06-20T10:35:53.533Z,41024.00
2019-06-20T10:36:53.472Z,20192.00
2019-06-20T10:37:53.470Z,21024.00
2019-06-20T10:38:53.415Z,26240.00
2019-06-20T10:39:53.414Z,27296.00
2019-06-20T10:40:53.343Z,28064.00
2019-06-20T10:41:53.318Z,28512.00
2019-06-20T10:42:53.283Z,69184.00
2019-06-20T10:43:53.259Z,37440.00
2019-06-20T10:44:53.546Z,68320.00
2019-06-20T10:45:53.371Z,41056.00
2019-06-20T10:46:53.171Z,70752.00
2019-06-20T10:47:53.190Z,71232.00
2019-06-20T10:48:53.091Z,71840.00
2019-06-20T10:49:53.058Z,74880.00
2019-06-20T10:50:53.032Z,69216.00
2019-06-20T10:51:53.035Z,58336.00
2019-06-20T10:52:52.972Z,77152.00
2019-06-20T10:53:53.410Z,77024.00
2019-06-20T10:54:52.984Z,70528.00
2019-06-20T10:55:52.879Z,71712.00
2019-06-20T10:56:52.890Z,28480.00
2019-06-20T10:57:52.817Z,27008.00
2019-06-20T10:58:52.790Z,72448.00
2019-06-20T10:59:52.753Z,68448.00
2019-06-20T11:00:52.728Z,39840.00
2019-06-20T11:01:52.689Z,43584.00
2019-06-20T11:02:52.699Z,39424.00
2019-06-20T11:03:52.638Z,71968.00
2019-06-20T11:04:52.612Z,68864.00
2019-06-20T11:05:52.581Z,33376.00
2019-06-20T11:06:52.550Z,26400.00
2019-06-20T11:07:52.530Z,27712.00
2019-06-20T11:08:52.535Z,27136.00
2019-06-20T11:09:52.467Z,25600.00
2019-06-20T11:10:52.430Z,26496.00
2019-06-20T11:11:52.392Z,31936.00
2019-06-20T11:12:55.955Z,25952.00
2019-06-20T11:13:52.361Z,55360.00
2019-06-20T11:14:52.337Z,25312.00
2019-06-20T11:15:52.281Z,24320.00
2019-06-20T11:16:52.252Z,24480.00
2019-06-20T11:17:52.218Z,24608.00
2019-06-20T11:18:52.190Z,23200.00
2019-06-20T11:19:52.188Z,21728.00
2019-06-20T11:20:52.118Z,18944.00
2019-06-20T11:21:52.100Z,17440.00
2019-06-20T11:22:52.052Z,17504.00
2019-06-20T11:23:52.029Z,15400.00
2019-06-20T11:24:51.998Z,14932.00
2019-06-20T11:25:51.994Z,15372.00
2019-06-20T11:26:51.951Z,20640.00
2019-06-20T11:27:51.906Z,48128.00
2019-06-20T11:28:52.432Z,75136.00
2019-06-20T11:29:51.850Z,59040.00
2019-06-20T11:30:59.269Z,37728.00
2019-06-20T11:31:51.774Z,29088.00
2019-06-20T11:32:51.734Z,26528.00
2019-06-20T11:33:51.703Z,54400.00
2019-06-20T11:34:51.673Z,51968.00
2019-06-20T11:35:51.678Z,63936.00
2019-06-20T11:36:51.610Z,24352.00
2019-06-20T11:37:51.628Z,20192.00
2019-06-20T11:38:51.555Z,18048.00
2019-06-20T11:39:51.512Z,17152.00
2019-06-20T11:40:51.480Z,15700.00
2019-06-20T11:41:51.452Z,14040.00
2019-06-20T11:42:51.417Z,13584.00
2019-06-20T11:43:51.417Z,14076.00
2019-06-20T11:44:51.352Z,15136.00
2019-06-20T11:45:51.316Z,16388.00
2019-06-20T11:46:51.285Z,24224.00
2019-06-20T11:47:51.259Z,46144.00
2019-06-20T11:48:51.310Z,45856.00
2019-06-20T11:49:51.403Z,40512.00
2019-06-20T11:50:51.155Z,43872.00
2019-06-20T11:51:51.122Z,40480.00
2019-06-20T11:52:51.127Z,36992.00
2019-06-20T11:53:51.060Z,31584.00
2019-06-20T11:54:51.025Z,26848.00
2019-06-20T11:55:50.997Z,23840.00
2019-06-20T11:56:50.962Z,21952.00
2019-06-20T11:57:50.927Z,21120.00
2019-06-20T11:58:50.931Z,21504.00
2019-06-20T11:59:50.894Z,21632.00
2019-06-20T12:01:03.114Z,23424.00
2019-06-20T12:01:51.257Z,24704.00
2019-06-20T12:02:50.777Z,22272.00
2019-06-20T12:03:50.742Z,20352.00
2019-06-20T12:04:50.703Z,19808.00
2019-06-20T12:05:50.664Z,20096.00
2019-06-20T12:06:50.672Z,20320.00
2019-06-20T12:07:50.642Z,20544.00
2019-06-20T12:08:50.598Z,19712.00
2019-06-20T12:09:51.129Z,18720.00
2019-06-20T12:10:50.509Z,16896.00
2019-06-20T12:11:50.469Z,14228.00
2019-06-20T12:12:50.476Z,12400.00
2019-06-20T12:13:50.411Z,12528.00
2019-06-20T12:14:50.400Z,15248.00